Pagrindinis puslapis
METAR-TAF:

METAR-TAF

Oro uostai :

Bückeburg, Vokietija

platuma: 52-17N, ilguma: 009-05E, Aukštis: 70 m

Dabartinis oras

Ataskaita buvo paskelbta 49 minutes, ne 20:20 UTC
Vėjas 3 kt iš Pietų
Temperatūra 10°C
Drėgmė 76%
Slėgis 1026 hPa
Matomumas 10 km arba daugiau

METAR: ETHB 202020Z 17003KT 9999 10/06 Q1026 BLU+

Laikas: 23:09 (21:09 UTC)

Prognozė

Ataskaita buvo paskelbta 11 valandos ir 11 minutes, ne 09:58 UTC
Prognozė galioja nuo 20 metu 08 UTC su 20 metu 17 UTC
Vėjas 5 kt iš Pietvakarių
Matomumas: 1000 m
Išsisklaidę debesys ne aukštis 5000 ft
Su prošvaistėmis ne aukštis 30000 ft

TAF: ETHB 200958Z 2008/2017 23005KT 9999 NSW SCT050 BKN300 CANCEL 1000

Orai ataskaitas ir orų prognozės (METAR, TAF).

turimą stotys yra geltonos ir raudonos taškus žemėlapyje.

Perkelti pele per norėdami pamatyti stoties vardą.

Tada spustelėkite, norėdami matyti oro stebėjimo ir prognozės.

Norėdami pakeisti žemėlapį: spustelėkite ant žalios mygtukų su juodo kryžiaus žemyn,; žalią mygtuką su brūkšneliu, jei norite nutolinti; arba žalių rodyklių gretimoms žemėlapius.


METAR-TAF: